Time;durP1;ratioP1;P1;durP2;ratioP2;P2;SDS_P1;SDS_P2;PMS_P1;PMS_P2;Temp;Humidity;BMP_temperature;BMP_pressure;BME280_temperature;BME280_humidity;BME280_pressure;Samples;Min_cycle;Max_cycle;Signal;HPM_P1;HPM_P2
2023/07/25 00:00:21;;;;;;;7.20;3.90;;;;;;;-128.00;-1.00;-1.00;95821;296;2702612;-34
2023/07/25 00:02:47;;;;;;;7.70;5.80;;;;;;;-128.00;-1.00;-1.00;34331;297;7504311;-31
2023/07/25 00:05:12;;;;;;;7.50;4.40;;;;;;;-128.00;-1.00;-1.00;66832;296;4503460;-35
2023/07/25 00:07:38;;;;;;;11.10;5.80;;;;;;;-128.00;-1.00;-1.00;79530;296;7503584;-35
2023/07/25 00:10:04;;;;;;;6.90;5.50;;;;;;;-128.00;-1.00;-1.00;79427;296;3003412;-31
2023/07/25 00:12:29;;;;;;;6.50;4.70;;;;;;;-128.00;-1.00;-1.00;20779;296;7506288;-35
2023/07/25 00:14:55;;;;;;;14.10;5.20;;;;;;;-128.00;-1.00;-1.00;22225;297;7505430;-31
2023/07/25 00:17:21;;;;;;;8.70;4.00;;;;;;;-128.00;-1.00;-1.00;62234;296;4503356;-35
2023/07/25 00:19:49;;;;;;;8.30;5.00;;;;;;;-128.00;-1.00;-1.00;59826;296;6122830;-35
2023/07/25 00:22:16;;;;;;;9.50;5.20;;;;;;;-128.00;-1.00;-1.00;40631;296;7504080;-35
2023/07/25 00:24:44;;;;;;;22.90;5.90;;;;;;;-128.00;-1.00;-1.00;33312;296;7504239;-35
2023/07/25 00:27:10;;;;;;;12.10;5.00;;;;;;;-128.00;-1.00;-1.00;61343;289;7504297;-31
2023/07/25 00:29:37;;;;;;;11.80;4.70;;;;;;;-128.00;-1.00;-1.00;35085;296;7353981;-31
2023/07/25 00:32:03;;;;;;;8.00;4.10;;;;;;;-128.00;-1.00;-1.00;23208;296;7505247;-36
2023/07/25 00:34:29;;;;;;;8.90;3.70;;;;;;;-128.00;-1.00;-1.00;30489;298;7505203;-35
2023/07/25 01:18:30;;;;;;;6.80;4.50;;;;;;;-99.12;19.01;19607.75;19534;296;8044398;-35
2023/07/25 01:20:56;;;;;;;5.00;3.90;;;;;;;-128.00;-1.00;-1.00;18606;350;7504767;-35
2023/07/25 01:23:22;;;;;;;8.20;4.40;;;;;;;-128.00;-1.00;-1.00;18874;297;7504417;-32
2023/07/25 01:25:48;;;;;;;8.50;4.90;;;;;;;-128.00;-1.00;-1.00;18856;341;7504329;-31
2023/07/25 01:28:14;;;;;;;7.80;5.20;;;;;;;-128.00;-1.00;-1.00;18873;296;7504602;-32
2023/07/25 01:30:41;;;;;;;18.30;7.40;;;;;;;-128.00;-1.00;-1.00;18919;296;7505814;-35
2023/07/25 01:33:07;;;;;;;15.50;8.20;;;;;;;-128.00;-1.00;-1.00;18884;296;7505102;-32
2023/07/25 01:35:33;;;;;;;12.40;9.20;;;;;;;-128.00;-1.00;-1.00;18858;348;7504922;-35
2023/07/25 01:37:59;;;;;;;12.60;8.70;;;;;;;-128.00;-1.00;-1.00;18857;296;7504495;-33
2023/07/25 01:40:26;;;;;;;13.10;5.90;;;;;;;-128.00;-1.00;-1.00;18855;296;7505254;-32
2023/07/25 01:42:52;;;;;;;9.70;5.20;;;;;;;-128.00;-1.00;-1.00;18869;288;7504949;-32
2023/07/25 01:45:18;;;;;;;10.10;5.20;;;;;;;-128.00;-1.00;-1.00;18858;296;7504851;-31
2023/07/25 01:47:44;;;;;;;7.30;5.40;;;;;;;-128.00;-1.00;-1.00;18878;289;7504675;-36
2023/07/25 01:50:10;;;;;;;9.90;5.20;;;;;;;-128.00;-1.00;-1.00;18882;348;7505439;-35
2023/07/25 01:52:36;;;;;;;8.60;5.20;;;;;;;-128.00;-1.00;-1.00;18893;296;7505326;-35
2023/07/25 01:55:03;;;;;;;8.20;5.30;;;;;;;-128.00;-1.00;-1.00;18911;300;7505148;-35
2023/07/25 01:57:29;;;;;;;8.00;4.70;;;;;;;-128.00;-1.00;-1.00;18445;348;7506170;-35
2023/07/25 01:59:57;;;;;;;4.00;3.10;;;;;;;-128.00;-1.00;-1.00;18878;288;7504169;-35
2023/07/25 02:02:22;;;;;;;16.80;5.10;;;;;;;-128.00;-1.00;-1.00;18454;296;7504908;-35
2023/07/25 02:04:48;;;;;;;6.00;3.60;;;;;;;-128.00;-1.00;-1.00;18458;296;7504653;-35
2023/07/25 02:07:13;;;;;;;13.50;4.20;;;;;;;-128.00;-1.00;-1.00;18505;288;7504724;-32
2023/07/25 02:09:40;;;;;;;6.60;3.70;;;;;;;-128.00;-1.00;-1.00;18846;296;7505123;-35
2023/07/25 02:12:07;;;;;;;5.00;3.20;;;;;;;-128.00;-1.00;-1.00;18874;288;7504366;-33
2023/07/25 02:14:33;;;;;;;6.40;3.80;;;;;;;-128.00;-1.00;-1.00;18465;296;7505653;-35
2023/07/25 02:16:59;;;;;;;3.50;2.60;;;;;;;-128.00;-1.00;-1.00;18491;285;7504426;-35
2023/07/25 02:19:25;;;;;;;3.80;2.90;;;;;;;-128.00;-1.00;-1.00;18905;319;7504935;-32
2023/07/25 02:21:51;;;;;;;4.50;3.10;;;;;;;-128.00;-1.00;-1.00;18872;289;7505709;-35
2023/07/25 02:24:17;;;;;;;5.90;4.10;;;;;;;-128.00;-1.00;-1.00;18885;285;7504762;-31
2023/07/25 02:26:43;;;;;;;5.10;3.70;;;;;;;-128.00;-1.00;-1.00;18885;285;7505270;-32
2023/07/25 02:29:10;;;;;;;4.30;3.30;;;;;;;-128.00;-1.00;-1.00;18881;296;7504909;-30
2023/07/25 02:31:36;;;;;;;6.20;3.60;;;;;;;-128.00;-1.00;-1.00;18874;285;7504225;-34
2023/07/25 02:34:02;;;;;;;4.00;2.40;;;;;;;-128.00;-1.00;-1.00;18879;296;7504394;-31
2023/07/25 02:36:28;;;;;;;8.20;3.40;;;;;;;-128.00;-1.00;-1.00;18883;296;7504342;-35
2023/07/25 02:38:54;;;;;;;5.50;3.50;;;;;;;-128.00;-1.00;-1.00;18886;297;7505813;-31
2023/07/25 02:41:20;;;;;;;3.10;2.30;;;;;;;-128.00;-1.00;-1.00;18481;285;7506365;-31
2023/07/25 02:43:46;;;;;;;3.70;2.50;;;;;;;-128.00;-1.00;-1.00;18461;289;7506086;-31
2023/07/25 02:46:12;;;;;;;10.00;3.00;;;;;;;-128.00;-1.00;-1.00;18500;296;7504342;-35
2023/07/25 02:48:37;;;;;;;4.20;2.90;;;;;;;-128.00;-1.00;-1.00;18487;289;7507050;-34
2023/07/25 02:51:04;;;;;;;4.90;3.40;;;;;;;-128.00;-1.00;-1.00;18449;298;7504849;-31
2023/07/25 02:53:29;;;;;;;7.00;4.20;;;;;;;-128.00;-1.00;-1.00;18453;296;7504260;-34
2023/07/25 02:55:56;;;;;;;9.20;4.00;;;;;;;-128.00;-1.00;-1.00;18885;301;7504605;-34
2023/07/25 02:58:23;;;;;;;3.90;2.70;;;;;;;-128.00;-1.00;-1.00;18454;285;7504537;-31
2023/07/25 03:00:48;;;;;;;9.00;3.00;;;;;;;-128.00;-1.00;-1.00;18458;289;7506908;-34
2023/07/25 03:03:14;;;;;;;6.40;3.00;;;;;;;-128.00;-1.00;-1.00;18469;319;7504757;-33
2023/07/25 03:05:40;;;;;;;5.30;2.70;;;;;;;-128.00;-1.00;-1.00;18478;285;7505040;-32
2023/07/25 03:08:05;;;;;;;5.60;2.60;;;;;;;-128.00;-1.00;-1.00;18464;289;7504286;-32
2023/07/25 03:10:32;;;;;;;5.20;3.10;;;;;;;-128.00;-1.00;-1.00;18482;289;7506010;-32
2023/07/25 03:12:58;;;;;;;5.00;2.80;;;;;;;-128.00;-1.00;-1.00;18502;285;7505997;-32
2023/07/25 03:15:24;;;;;;;6.70;3.60;;;;;;;-128.00;-1.00;-1.00;18469;289;7504615;-32
2023/07/25 03:17:50;;;;;;;5.90;3.70;;;;;;;-128.00;-1.00;-1.00;18504;289;7506672;-35
2023/07/25 03:20:15;;;;;;;8.80;3.40;;;;;;;-128.00;-1.00;-1.00;18467;296;7504793;-36
2023/07/25 03:22:41;;;;;;;4.80;2.80;;;;;;;-128.00;-1.00;-1.00;18455;285;7504937;-33
2023/07/25 03:25:07;;;;;;;7.50;2.80;;;;;;;-128.00;-1.00;-1.00;18465;285;7504845;-36
2023/07/25 03:27:33;;;;;;;3.10;1.80;;;;;;;-128.00;-1.00;-1.00;18465;296;7506329;-31
2023/07/25 03:29:58;;;;;;;5.10;2.00;;;;;;;-128.00;-1.00;-1.00;18498;285;7504403;-35
2023/07/25 03:32:25;;;;;;;4.20;1.90;;;;;;;-128.00;-1.00;-1.00;18886;288;7504376;-35
2023/07/25 03:34:51;;;;;;;13.10;2.40;;;;;;;-128.00;-1.00;-1.00;18482;296;7504942;-32
2023/07/25 03:37:17;;;;;;;3.30;1.80;;;;;;;-128.00;-1.00;-1.00;18910;289;7504117;-32
2023/07/25 03:39:43;;;;;;;6.30;2.80;;;;;;;-128.00;-1.00;-1.00;18883;320;7505373;-35
2023/07/25 03:42:09;;;;;;;4.00;2.50;;;;;;;-128.00;-1.00;-1.00;18897;349;7504215;-30
2023/07/25 03:44:36;;;;;;;3.50;2.60;;;;;;;-128.00;-1.00;-1.00;18847;349;7504564;-34
2023/07/25 03:47:02;;;;;;;9.30;2.80;;;;;;;-128.00;-1.00;-1.00;18875;298;7504496;-34
2023/07/25 03:49:28;;;;;;;5.00;2.60;;;;;;;-128.00;-1.00;-1.00;18907;289;7504322;-35
2023/07/25 03:51:54;;;;;;;5.40;3.00;;;;;;;-128.00;-1.00;-1.00;18859;348;7504547;-36
2023/07/25 03:54:23;;;;;;;4.40;2.50;;;;;;;-128.00;-1.00;-1.00;18876;285;7505493;-35
2023/07/25 03:56:50;;;;;;;4.60;2.80;;;;;;;-128.00;-1.00;-1.00;18453;297;7505614;-32
2023/07/25 03:59:17;;;;;;;5.30;2.30;;;;;;;-128.00;-1.00;-1.00;18447;349;7505262;-35
2023/07/25 04:01:42;;;;;;;6.70;3.20;;;;;;;-128.00;-1.00;-1.00;18497;285;7504649;-33
2023/07/25 04:04:08;;;;;;;7.30;3.10;;;;;;;-128.00;-1.00;-1.00;18868;289;7504844;-35
2023/07/25 04:06:34;;;;;;;5.00;2.80;;;;;;;-128.00;-1.00;-1.00;18866;285;7504374;-38
2023/07/25 04:09:01;;;;;;;14.40;2.60;;;;;;;-128.00;-1.00;-1.00;18868;296;7504458;-33
2023/07/25 04:11:27;;;;;;;4.00;2.50;;;;;;;-128.00;-1.00;-1.00;18870;296;7504588;-35
2023/07/25 04:13:53;;;;;;;4.80;2.80;;;;;;;-128.00;-1.00;-1.00;18859;297;7505453;-33
2023/07/25 04:16:19;;;;;;;5.00;2.30;;;;;;;-128.00;-1.00;-1.00;18913;312;7504875;-33
2023/07/25 04:18:46;;;;;;;9.60;2.90;;;;;;;-128.00;-1.00;-1.00;18869;285;7504637;-38
2023/07/25 04:21:12;;;;;;;5.30;2.70;;;;;;;-128.00;-1.00;-1.00;18464;289;7504600;-33
2023/07/25 04:23:38;;;;;;;3.70;1.80;;;;;;;-128.00;-1.00;-1.00;18475;296;7504441;-36
2023/07/25 04:26:04;;;;;;;4.20;2.50;;;;;;;-128.00;-1.00;-1.00;18464;285;7506171;-35
2023/07/25 04:28:30;;;;;;;2.80;2.30;;;;;;;-128.00;-1.00;-1.00;18502;285;7504617;-40
2023/07/25 04:30:55;;;;;;;3.40;2.30;;;;;;;-128.00;-1.00;-1.00;18488;289;7505103;-36
2023/07/25 04:33:21;;;;;;;5.90;3.40;;;;;;;-128.00;-1.00;-1.00;18461;296;7504543;-32
2023/07/25 04:35:46;;;;;;;4.00;2.10;;;;;;;-128.00;-1.00;-1.00;18485;296;7505060;-32
2023/07/25 04:38:15;;;;;;;8.50;2.80;;;;;;;-128.00;-1.00;-1.00;18479;289;7504464;-32
2023/07/25 04:40:45;;;;;;;3.50;2.20;;;;;;;-128.00;-1.00;-1.00;18461;296;7504792;-36
2023/07/25 04:43:10;;;;;;;3.90;2.60;;;;;;;-128.00;-1.00;-1.00;18464;285;7504876;-32
2023/07/25 04:45:37;;;;;;;5.40;3.40;;;;;;;-128.00;-1.00;-1.00;18486;289;7506346;-32
2023/07/25 04:48:03;;;;;;;3.30;2.50;;;;;;;-128.00;-1.00;-1.00;18479;289;7504131;-32
2023/07/25 04:50:29;;;;;;;3.80;1.40;;;;;;;-128.00;-1.00;-1.00;18451;296;7504634;-33
2023/07/25 04:52:55;;;;;;;4.30;2.10;;;;;;;-128.00;-1.00;-1.00;18891;289;7504732;-32
2023/07/25 04:55:21;;;;;;;3.10;2.00;;;;;;;-128.00;-1.00;-1.00;18858;349;7504376;-36
2023/07/25 04:57:49;;;;;;;4.70;2.20;;;;;;;-128.00;-1.00;-1.00;18853;285;7505063;-36
2023/07/25 05:00:15;;;;;;;3.70;1.40;;;;;;;-128.00;-1.00;-1.00;18481;296;7505988;-32
2023/07/25 05:02:41;;;;;;;1.10;0.60;;;;;;;-128.00;-1.00;-1.00;18488;297;7505105;-36
2023/07/25 05:05:07;;;;;;;2.70;1.80;;;;;;;-128.00;-1.00;-1.00;18451;296;7504393;-33
2023/07/25 05:07:32;;;;;;;2.50;1.10;;;;;;;-128.00;-1.00;-1.00;18487;297;7504900;-32
2023/07/25 05:09:58;;;;;;;5.20;4.20;;;;;;;-128.00;-1.00;-1.00;18463;285;7505981;-32
2023/07/25 05:12:24;;;;;;;5.90;4.80;;;;;;;-128.00;-1.00;-1.00;18460;285;7504896;-36
2023/07/25 05:14:50;;;;;;;38.40;20.30;;;;;;;-128.00;-1.00;-1.00;18857;289;7504876;-32
2023/07/25 05:17:16;;;;;;;1.60;1.00;;;;;;;-128.00;-1.00;-1.00;18868;296;7504264;-36
2023/07/25 05:19:42;;;;;;;3.10;2.20;;;;;;;-128.00;-1.00;-1.00;18855;285;7504550;-32
2023/07/25 05:22:09;;;;;;;4.60;1.80;;;;;;;-128.00;-1.00;-1.00;18868;289;7504209;-36
2023/07/25 05:24:35;;;;;;;7.50;5.10;;;;;;;-128.00;-1.00;-1.00;18856;285;7504135;-33
2023/07/25 05:27:01;;;;;;;19.40;9.20;;;;;;;-128.00;-1.00;-1.00;18874;289;7504664;-35
2023/07/25 05:29:28;;;;;;;2.40;1.20;;;;;;;-128.00;-1.00;-1.00;18876;296;7504965;-35
2023/07/25 05:31:54;;;;;;;2.50;1.50;;;;;;;-128.00;-1.00;-1.00;18854;297;7504334;-35
2023/07/25 05:34:20;;;;;;;3.10;1.30;;;;;;;-128.00;-1.00;-1.00;18467;297;7505971;-35
2023/07/25 05:36:46;;;;;;;2.30;2.00;;;;;;;-128.00;-1.00;-1.00;18886;296;7506385;-35
2023/07/25 05:39:12;;;;;;;3.60;1.30;;;;;;;-128.00;-1.00;-1.00;18867;321;7504266;-31
2023/07/25 05:41:39;;;;;;;5.40;2.10;;;;;;;-128.00;-1.00;-1.00;18852;349;7504348;-35
2023/07/25 05:44:05;;;;;;;3.00;1.40;;;;;;;-128.00;-1.00;-1.00;18481;296;7505776;-35
2023/07/25 05:46:31;;;;;;;37.60;19.90;;;;;;;-128.00;-1.00;-1.00;18853;296;7504801;-36
2023/07/25 05:48:57;;;;;;;10.50;2.30;;;;;;;-128.00;-1.00;-1.00;18880;296;7505352;-33
2023/07/25 05:51:23;;;;;;;2.20;0.90;;;;;;;-128.00;-1.00;-1.00;18856;289;7504522;-32
2023/07/25 05:53:50;;;;;;;1.70;1.00;;;;;;;-128.00;-1.00;-1.00;18882;285;7505020;-31
2023/07/25 05:56:16;;;;;;;4.40;1.90;;;;;;;-128.00;-1.00;-1.00;18875;296;7505469;-36
2023/07/25 05:58:42;;;;;;;2.50;1.40;;;;;;;-128.00;-1.00;-1.00;18868;289;7504719;-35
2023/07/25 06:01:08;;;;;;;5.40;1.70;;;;;;;-128.00;-1.00;-1.00;18448;285;7504925;-35
2023/07/25 06:03:34;;;;;;;2.80;1.30;;;;;;;-128.00;-1.00;-1.00;18462;305;7505028;-31
2023/07/25 06:05:59;;;;;;;2.70;1.40;;;;;;;-128.00;-1.00;-1.00;18469;285;7506069;-31
2023/07/25 06:08:25;;;;;;;1.70;0.70;;;;;;;-128.00;-1.00;-1.00;18886;297;7504595;-36
2023/07/25 06:10:51;;;;;;;1.60;1.20;;;;;;;-128.00;-1.00;-1.00;18440;345;7506179;-33
2023/07/25 06:13:17;;;;;;;2.10;1.20;;;;;;;-128.00;-1.00;-1.00;18422;342;7506579;-35
2023/07/25 06:15:43;;;;;;;4.20;0.90;;;;;;;-128.00;-1.00;-1.00;18867;285;7504466;-31
2023/07/25 06:18:09;;;;;;;1.90;0.70;;;;;;;-128.00;-1.00;-1.00;18860;285;7505971;-32
2023/07/25 06:20:35;;;;;;;1.70;0.60;;;;;;;-128.00;-1.00;-1.00;18862;297;7505668;-34
2023/07/25 06:23:02;;;;;;;1.40;0.80;;;;;;;-128.00;-1.00;-1.00;18868;296;7506789;-35
2023/07/25 06:25:28;;;;;;;0.50;0.40;;;;;;;-128.00;-1.00;-1.00;18865;304;7504666;-31
2023/07/25 06:27:54;;;;;;;1.50;0.50;;;;;;;-128.00;-1.00;-1.00;18465;285;7506771;-36
2023/07/25 06:30:20;;;;;;;1.00;0.70;;;;;;;-128.00;-1.00;-1.00;18454;285;7504558;-35
2023/07/25 06:32:46;;;;;;;2.00;0.90;;;;;;;-128.00;-1.00;-1.00;18442;296;7504288;-36
2023/07/25 06:35:12;;;;;;;2.30;0.90;;;;;;;-128.00;-1.00;-1.00;18481;289;7506344;-35
2023/07/25 06:37:38;;;;;;;0.60;0.50;;;;;;;-128.00;-1.00;-1.00;18480;296;7506240;-36
2023/07/25 06:40:04;;;;;;;1.10;0.70;;;;;;;-128.00;-1.00;-1.00;18464;285;7505225;-36
2023/07/25 06:42:29;;;;;;;5.30;0.70;;;;;;;-128.00;-1.00;-1.00;18475;297;7504943;-32
2023/07/25 06:44:56;;;;;;;0.90;0.30;;;;;;;-128.00;-1.00;-1.00;18454;285;7505014;-35
2023/07/25 06:47:22;;;;;;;0.50;0.50;;;;;;;-128.00;-1.00;-1.00;18468;297;7505132;-32
2023/07/25 06:49:48;;;;;;;1.00;0.60;;;;;;;-128.00;-1.00;-1.00;18443;349;7504959;-32
2023/07/25 06:52:14;;;;;;;2.50;0.80;;;;;;;-128.00;-1.00;-1.00;18891;289;7504484;-31
2023/07/25 06:54:42;;;;;;;2.00;1.00;;;;;;;-128.00;-1.00;-1.00;18866;296;7504137;-32
2023/07/25 06:57:08;;;;;;;1.20;0.70;;;;;;;-128.00;-1.00;-1.00;18449;296;7504507;-31
2023/07/25 06:59:34;;;;;;;2.30;1.30;;;;;;;-128.00;-1.00;-1.00;18483;297;7504572;-33
2023/07/25 07:02:00;;;;;;;1.80;0.80;;;;;;;-128.00;-1.00;-1.00;18851;297;7505418;-32
2023/07/25 07:04:26;;;;;;;1.60;0.70;;;;;;;-128.00;-1.00;-1.00;18838;297;7504579;-31
2023/07/25 07:06:52;;;;;;;1.80;0.80;;;;;;;-128.00;-1.00;-1.00;18869;285;7504328;-33
2023/07/25 07:09:18;;;;;;;1.70;0.70;;;;;;;-128.00;-1.00;-1.00;18892;320;7505318;-32
2023/07/25 07:11:44;;;;;;;2.40;0.90;;;;;;;-128.00;-1.00;-1.00;18858;289;7504819;-32
2023/07/25 07:14:11;;;;;;;0.80;0.50;;;;;;;-128.00;-1.00;-1.00;18468;296;7505102;-33
2023/07/25 07:16:36;;;;;;;0.40;0.30;;;;;;;-128.00;-1.00;-1.00;18432;289;7505137;-32
2023/07/25 07:19:03;;;;;;;0.60;0.50;;;;;;;-128.00;-1.00;-1.00;18464;296;7505757;-36
2023/07/25 07:21:29;;;;;;;1.40;0.80;;;;;;;-128.00;-1.00;-1.00;18456;285;7504335;-32
2023/07/25 07:23:55;;;;;;;0.80;0.60;;;;;;;-128.00;-1.00;-1.00;18469;296;7504288;-36
2023/07/25 07:26:21;;;;;;;0.60;0.30;;;;;;;-128.00;-1.00;-1.00;18492;296;7506593;-32
2023/07/25 07:28:46;;;;;;;1.80;0.70;;;;;;;-128.00;-1.00;-1.00;18482;289;7504499;-35
2023/07/25 07:31:12;;;;;;;1.10;0.80;;;;;;;-128.00;-1.00;-1.00;18456;297;7506094;-36
2023/07/25 07:33:38;;;;;;;2.20;0.70;;;;;;;-128.00;-1.00;-1.00;18445;349;7504475;-32
2023/07/25 07:36:05;;;;;;;0.90;0.60;;;;;;;-128.00;-1.00;-1.00;18437;344;7505992;-31
2023/07/25 07:38:30;;;;;;;0.40;0.30;;;;;;;-128.00;-1.00;-1.00;18448;296;7506259;-31
2023/07/25 07:40:56;;;;;;;2.90;1.00;;;;;;;-128.00;-1.00;-1.00;18474;349;7504682;-35
2023/07/25 07:43:22;;;;;;;1.50;0.60;;;;;;;-128.00;-1.00;-1.00;18861;296;7504693;-34
2023/07/25 07:45:49;;;;;;;1.20;0.90;;;;;;;-128.00;-1.00;-1.00;18876;296;7504102;-32
2023/07/25 07:48:15;;;;;;;1.80;0.80;;;;;;;-128.00;-1.00;-1.00;18467;296;7505731;-32
2023/07/25 07:50:42;;;;;;;1.00;0.80;;;;;;;-128.00;-1.00;-1.00;18450;296;7504166;-35
2023/07/25 07:53:09;;;;;;;0.60;0.50;;;;;;;-128.00;-1.00;-1.00;18446;308;7504166;-32
2023/07/25 07:55:34;;;;;;;1.10;0.90;;;;;;;-128.00;-1.00;-1.00;18456;312;7504498;-35
2023/07/25 07:58:00;;;;;;;1.40;1.00;;;;;;;-128.00;-1.00;-1.00;18460;296;7506993;-32
2023/07/25 08:00:26;;;;;;;1.00;0.60;;;;;;;-128.00;-1.00;-1.00;18471;285;7505976;-31
2023/07/25 08:02:51;;;;;;;1.50;0.70;;;;;;;-128.00;-1.00;-1.00;18443;289;7505088;-31
2023/07/25 08:05:17;;;;;;;1.40;1.30;;;;;;;-128.00;-1.00;-1.00;18484;289;7504343;-35
2023/07/25 08:07:43;;;;;;;1.40;0.50;;;;;;;-128.00;-1.00;-1.00;18459;289;7506112;-31
2023/07/25 08:10:09;;;;;;;1.40;0.40;;;;;;;-128.00;-1.00;-1.00;18448;288;7504812;-31
2023/07/25 08:12:35;;;;;;;0.80;0.80;;;;;;;-128.00;-1.00;-1.00;18455;304;7505989;-32
2023/07/25 08:15:01;;;;;;;1.50;0.70;;;;;;;-128.00;-1.00;-1.00;18862;321;7504320;-31
2023/07/25 08:17:27;;;;;;;0.80;0.60;;;;;;;-128.00;-1.00;-1.00;18458;296;7504632;-37
2023/07/25 08:19:53;;;;;;;3.30;0.90;;;;;;;-128.00;-1.00;-1.00;18469;296;7506024;-32
2023/07/25 08:22:18;;;;;;;2.40;1.20;;;;;;;-128.00;-1.00;-1.00;18488;289;7505846;-35
2023/07/25 08:24:44;;;;;;;3.50;1.10;;;;;;;-128.00;-1.00;-1.00;18473;296;7506176;-31
2023/07/25 08:27:10;;;;;;;0.80;0.60;;;;;;;-128.00;-1.00;-1.00;18465;325;7504473;-35
2023/07/25 08:29:40;;;;;;;0.40;0.30;;;;;;;-128.00;-1.00;-1.00;18456;296;7505993;-31
2023/07/25 08:32:07;;;;;;;3.00;0.70;;;;;;;-128.00;-1.00;-1.00;18500;296;7505776;-32
2023/07/25 08:34:33;;;;;;;0.40;0.40;;;;;;;-128.00;-1.00;-1.00;18449;341;7504407;-35
2023/07/25 08:36:58;;;;;;;0.50;0.50;;;;;;;-128.00;-1.00;-1.00;18437;331;7504728;-32
2023/07/25 08:39:24;;;;;;;1.40;0.80;;;;;;;-128.00;-1.00;-1.00;18878;345;7504656;-32
2023/07/25 08:41:51;;;;;;;1.80;0.70;;;;;;;-128.00;-1.00;-1.00;18857;285;7504527;-35
2023/07/25 08:44:18;;;;;;;1.30;1.00;;;;;;;-128.00;-1.00;-1.00;18468;285;7505651;-35
2023/07/25 08:46:44;;;;;;;2.10;0.90;;;;;;;-128.00;-1.00;-1.00;68255;285;7504131;-31
2023/07/25 08:49:15;;;;;;;1.60;0.90;;;;;;;-128.00;-1.00;-1.00;33823;285;7504291;-31
2023/07/25 08:51:44;;;;;;;1.90;0.80;;;;;;;-128.00;-1.00;-1.00;18752;285;7505770;-35
2023/07/25 08:54:11;;;;;;;1.10;0.50;;;;;;;-128.00;-1.00;-1.00;18491;289;7504155;-35
2023/07/25 08:56:38;;;;;;;0.80;0.50;;;;;;;-128.00;-1.00;-1.00;86268;297;7504079;-33
2023/07/25 08:59:06;;;;;;;0.50;0.50;;;;;;;-128.00;-1.00;-1.00;86818;285;3004202;-35
2023/07/25 09:01:31;;;;;;;2.00;0.90;;;;;;;-128.00;-1.00;-1.00;19519;348;7504966;-34
2023/07/25 09:03:58;;;;;;;2.40;0.60;;;;;;;-128.00;-1.00;-1.00;18469;297;7504856;-32
2023/07/25 09:06:24;;;;;;;1.30;0.60;;;;;;;-128.00;-1.00;-1.00;18483;285;7504831;-32
2023/07/25 09:08:53;;;;;;;1.30;0.80;;;;;;;-128.00;-1.00;-1.00;20130;297;7504682;-32
2023/07/25 09:11:20;;;;;;;9.20;0.70;;;;;;;-128.00;-1.00;-1.00;18874;296;7504901;-34
2023/07/25 09:13:47;;;;;;;2.40;0.90;;;;;;;-128.00;-1.00;-1.00;30751;296;7505009;-36
2023/07/25 09:16:14;;;;;;;2.30;0.50;;;;;;;-128.00;-1.00;-1.00;37012;289;7504569;-32
2023/07/25 09:18:40;;;;;;;0.50;0.40;;;;;;;-128.00;-1.00;-1.00;97912;285;1004422;-34
2023/07/25 09:21:06;;;;;;;1.00;0.50;;;;;;;-128.00;-1.00;-1.00;97456;296;1003244;-35
2023/07/25 09:23:32;;;;;;;1.00;0.40;;;;;;;-128.00;-1.00;-1.00;25139;298;7504633;-31
2023/07/25 09:26:05;;;;;;;1.60;0.80;;;;;;;-128.00;-1.00;-1.00;18471;296;7505800;-36
2023/07/25 09:28:31;;;;;;;0.70;0.50;;;;;;;-128.00;-1.00;-1.00;18440;289;7506080;-36
2023/07/25 09:30:57;;;;;;;0.80;0.60;;;;;;;-128.00;-1.00;-1.00;20986;285;7504274;-35
2023/07/25 09:33:26;;;;;;;1.60;0.80;;;;;;;-128.00;-1.00;-1.00;19576;296;7504509;-35
2023/07/25 09:35:52;;;;;;;1.00;0.60;;;;;;;-128.00;-1.00;-1.00;18455;285;7504549;-32
2023/07/25 09:38:18;;;;;;;0.90;0.60;;;;;;;-128.00;-1.00;-1.00;18471;289;7505161;-35
2023/07/25 09:40:45;;;;;;;1.40;0.40;;;;;;;-128.00;-1.00;-1.00;18475;289;7504375;-32
2023/07/25 09:43:24;;;;;;;1.20;1.00;;;;;;;-128.00;-1.00;-1.00;20958;296;7504521;-36
2023/07/25 09:45:53;;;;;;;1.20;0.70;;;;;;;-128.00;-1.00;-1.00;18493;285;7505076;-35
2023/07/25 09:48:19;;;;;;;3.30;0.80;;;;;;;-128.00;-1.00;-1.00;18462;297;7505946;-35
2023/07/25 09:50:47;;;;;;;1.70;0.70;;;;;;;-128.00;-1.00;-1.00;21704;296;7504574;-36
2023/07/25 09:53:15;;;;;;;0.40;0.20;;;;;;;-128.00;-1.00;-1.00;28044;285;7504636;-36
2023/07/25 09:55:41;;;;;;;1.80;0.90;;;;;;;-128.00;-1.00;-1.00;68140;285;7503790;-31
2023/07/25 09:58:07;;;;;;;1.00;0.40;;;;;;;-128.00;-1.00;-1.00;97801;289;1003134;-32
2023/07/25 10:00:33;;;;;;;0.80;0.50;;;;;;;-128.00;-1.00;-1.00;97802;285;1002873;-35
2023/07/25 10:02:58;;;;;;;1.20;0.80;;;;;;;-128.00;-1.00;-1.00;97832;296;1003331;-35
2023/07/25 10:05:25;;;;;;;1.60;0.60;;;;;;;-128.00;-1.00;-1.00;97861;285;1003088;-31
2023/07/25 10:07:52;;;;;;;2.30;0.50;;;;;;;-128.00;-1.00;-1.00;97864;296;1003000;-31
2023/07/25 10:10:18;;;;;;;0.80;0.70;;;;;;;-128.00;-1.00;-1.00;97849;285;1003119;-35
2023/07/25 10:12:43;;;;;;;1.30;0.80;;;;;;;-128.00;-1.00;-1.00;97872;285;1003322;-32
2023/07/25 10:15:10;;;;;;;0.70;0.30;;;;;;;-128.00;-1.00;-1.00;97776;296;1004559;-33
2023/07/25 10:17:36;;;;;;;0.90;0.60;;;;;;;-128.00;-1.00;-1.00;97941;285;1003735;-36
2023/07/25 10:20:01;;;;;;;0.90;0.70;;;;;;;-128.00;-1.00;-1.00;97791;296;1003564;-32
2023/07/25 10:22:39;;;;;;;0.40;0.40;;;;;;;-128.00;-1.00;-1.00;97792;285;1003640;-33
2023/07/25 10:25:12;;;;;;;0.90;0.50;;;;;;;-128.00;-1.00;-1.00;97935;285;1003191;-35
2023/07/25 10:27:38;;;;;;;1.10;1.00;;;;;;;-128.00;-1.00;-1.00;78543;296;4503560;-32
2023/07/25 10:30:27;;;;;;;4.90;0.60;;;;;;;-128.00;-1.00;-1.00;42505;285;7504046;-35
2023/07/25 10:32:56;;;;;;;1.80;0.60;;;;;;;-128.00;-1.00;-1.00;18692;285;7505005;-32
2023/07/25 10:35:47;;;;;;;1.50;0.60;;;;;;;-128.00;-1.00;-1.00;18497;289;7506071;-35
2023/07/25 10:38:13;;;;;;;0.70;0.60;;;;;;;-128.00;-1.00;-1.00;18476;336;7504957;-32
2023/07/25 10:40:54;;;;;;;1.30;0.90;;;;;;;-128.00;-1.00;-1.00;22379;301;7505052;-35
2023/07/25 10:43:21;;;;;;;1.10;0.50;;;;;;;-128.00;-1.00;-1.00;18457;296;7505384;-35
2023/07/25 10:45:50;;;;;;;1.40;0.60;;;;;;;-128.00;-1.00;-1.00;35047;285;7504857;-31
2023/07/25 10:48:35;;;;;;;0.80;0.60;;;;;;;-128.00;-1.00;-1.00;49770;285;7504301;-35
2023/07/25 10:51:07;;;;;;;1.10;1.00;;;;;;;-128.00;-1.00;-1.00;39798;289;7504570;-36
2023/07/25 10:53:33;;;;;;;1.90;1.00;;;;;;;-128.00;-1.00;-1.00;18453;299;7504980;-35
2023/07/25 10:56:09;;;;;;;3.30;0.80;;;;;;;-128.00;-1.00;-1.00;18585;348;7504469;-35
2023/07/25 10:58:38;;;;;;;1.80;1.00;;;;;;;-128.00;-1.00;-1.00;18869;312;7505579;-33
2023/07/25 11:01:04;;;;;;;1.80;1.00;;;;;;;-128.00;-1.00;-1.00;18882;298;7506162;-35
2023/07/25 11:03:35;;;;;;;0.70;0.50;;;;;;;-128.00;-1.00;-1.00;18895;285;7505599;-36
2023/07/25 11:06:30;;;;;;;1.30;0.90;;;;;;;-128.00;-1.00;-1.00;27146;289;7504599;-31
2023/07/25 11:08:55;;;;;;;1.00;0.70;;;;;;;-128.00;-1.00;-1.00;65286;285;7504011;-37
2023/07/25 11:11:21;;;;;;;1.00;0.60;;;;;;;-128.00;-1.00;-1.00;27444;285;7504432;-31
2023/07/25 11:13:46;;;;;;;1.00;0.60;;;;;;;-128.00;-1.00;-1.00;83262;285;4076364;-36
2023/07/25 11:16:14;;;;;;;1.20;0.70;;;;;;;-128.00;-1.00;-1.00;51756;285;7504131;-35
2023/07/25 11:18:52;;;;;;;0.70;0.70;;;;;;;-128.00;-1.00;-1.00;18492;296;7507131;-31
2023/07/25 11:21:18;;;;;;;1.10;1.00;;;;;;;-128.00;-1.00;-1.00;18837;296;7504918;-35
2023/07/25 11:23:43;;;;;;;0.40;0.40;;;;;;;-128.00;-1.00;-1.00;19131;289;7504430;-32
2023/07/25 11:26:09;;;;;;;1.30;0.60;;;;;;;-128.00;-1.00;-1.00;82859;284;4353144;-36
2023/07/25 11:28:37;;;;;;;0.80;0.50;;;;;;;-128.00;-1.00;-1.00;97823;296;1004076;-37
2023/07/25 11:31:03;;;;;;;0.80;0.50;;;;;;;-128.00;-1.00;-1.00;97986;285;1003235;-35
2023/07/25 11:33:38;;;;;;;1.20;0.80;;;;;;;-128.00;-1.00;-1.00;97840;296;1003110;-31
2023/07/25 11:36:05;;;;;;;1.10;0.40;;;;;;;-128.00;-1.00;-1.00;97802;296;1002918;-31
2023/07/25 11:38:34;;;;;;;0.60;0.50;;;;;;;-128.00;-1.00;-1.00;97825;285;1003061;-32
2023/07/25 11:41:00;;;;;;;4.90;0.60;;;;;;;-128.00;-1.00;-1.00;97791;285;1004626;-35
2023/07/25 11:43:28;;;;;;;1.80;0.50;;;;;;;-128.00;-1.00;-1.00;97920;296;1004587;-33
2023/07/25 11:45:54;;;;;;;0.80;0.60;;;;;;;-128.00;-1.00;-1.00;97898;285;1005057;-31
2023/07/25 11:48:20;;;;;;;2.50;0.50;;;;;;;-128.00;-1.00;-1.00;97926;296;1003317;-31
2023/07/25 11:50:48;;;;;;;0.80;0.60;;;;;;;-128.00;-1.00;-1.00;97894;285;1002581;-37
2023/07/25 11:53:21;;;;;;;0.80;0.50;;;;;;;-128.00;-1.00;-1.00;97850;285;1003507;-33
2023/07/25 11:55:47;;;;;;;;;;;;;;;-128.00;-1.00;-1.00;97804;285;1004636;-31
2023/07/25 11:58:16;;;;;;;2.10;0.80;;;;;;;-128.00;-1.00;-1.00;97985;296;1003422;-35
2023/07/25 12:00:42;;;;;;;3.60;0.70;;;;;;;-128.00;-1.00;-1.00;97783;285;1004016;-37
2023/07/25 12:03:23;;;;;;;1.70;0.90;;;;;;;-128.00;-1.00;-1.00;97895;285;1002670;-35
2023/07/25 12:05:56;;;;;;;3.30;0.70;;;;;;;-128.00;-1.00;-1.00;97890;285;1004871;-35
2023/07/25 12:08:40;;;;;;;1.30;0.50;;;;;;;-128.00;-1.00;-1.00;97771;296;1002985;-35
2023/07/25 12:11:08;;;;;;;2.90;1.40;;;;;;;-128.00;-1.00;-1.00;97851;297;1003727;-32
2023/07/25 12:13:42;;;;;;;1.50;0.90;;;;;;;-128.00;-1.00;-1.00;97889;285;1003307;-31